sensor_id;sensor_type;location;lat;lon;timestamp;pressure;altitude;pressure_sealevel;temperature;humidity
58072;BME280;60383;46.626;18.866;2022-12-07T00:00:55;100445.13;;;2.32;89.52
58072;BME280;60383;46.626;18.866;2022-12-07T00:03:28;100444.88;;;2.09;91.19
58072;BME280;60383;46.626;18.866;2022-12-07T00:05:57;100443.06;;;1.95;92.14
58072;BME280;60383;46.626;18.866;2022-12-07T00:08:22;100449.13;;;1.99;93.16
58072;BME280;60383;46.626;18.866;2022-12-07T00:10:48;100444.81;;;1.96;93.06
58072;BME280;60383;46.626;18.866;2022-12-07T00:13:13;100454.00;;;1.94;92.87
58072;BME280;60383;46.626;18.866;2022-12-07T00:15:39;100448.50;;;1.81;92.12
58072;BME280;60383;46.626;18.866;2022-12-07T00:18:04;100449.47;;;1.80;92.57
58072;BME280;60383;46.626;18.866;2022-12-07T00:20:29;100449.81;;;1.75;93.01
58072;BME280;60383;46.626;18.866;2022-12-07T00:22:56;100450.78;;;1.59;94.38
58072;BME280;60383;46.626;18.866;2022-12-07T00:25:21;100445.28;;;1.61;94.33
58072;BME280;60383;46.626;18.866;2022-12-07T00:27:46;100448.34;;;1.69;94.12
58072;BME280;60383;46.626;18.866;2022-12-07T00:30:12;100445.28;;;1.61;94.42
58072;BME280;60383;46.626;18.866;2022-12-07T00:32:37;100449.22;;;1.70;93.92
58072;BME280;60383;46.626;18.866;2022-12-07T00:35:03;100447.19;;;1.73;95.11
58072;BME280;60383;46.626;18.866;2022-12-07T00:37:29;100450.19;;;1.69;95.46
58072;BME280;60383;46.626;18.866;2022-12-07T00:39:54;100444.03;;;1.67;94.91
58072;BME280;60383;46.626;18.866;2022-12-07T00:42:19;100449.31;;;1.68;94.27
58072;BME280;60383;46.626;18.866;2022-12-07T00:44:45;100447.88;;;1.63;94.44
58072;BME280;60383;46.626;18.866;2022-12-07T00:47:10;100450.56;;;1.77;94.01
58072;BME280;60383;46.626;18.866;2022-12-07T00:49:36;100451.06;;;1.69;93.74
58072;BME280;60383;46.626;18.866;2022-12-07T00:52:01;100448.34;;;1.69;93.52
58072;BME280;60383;46.626;18.866;2022-12-07T00:54:26;100444.44;;;1.61;93.15
58072;BME280;60383;46.626;18.866;2022-12-07T00:56:52;100448.75;;;1.63;92.18
58072;BME280;60383;46.626;18.866;2022-12-07T00:59:17;100441.41;;;1.65;92.28
58072;BME280;60383;46.626;18.866;2022-12-07T01:01:43;100438.03;;;1.62;92.58
58072;BME280;60383;46.626;18.866;2022-12-07T01:04:08;100440.25;;;1.69;92.15
58072;BME280;60383;46.626;18.866;2022-12-07T01:06:34;100448.34;;;1.69;92.28
58072;BME280;60383;46.626;18.866;2022-12-07T01:09:00;100442.97;;;1.69;91.16
58072;BME280;60383;46.626;18.866;2022-12-07T01:11:28;100444.22;;;1.64;92.09
58072;BME280;60383;46.626;18.866;2022-12-07T01:13:56;100450.28;;;1.67;92.44
58072;BME280;60383;46.626;18.866;2022-12-07T01:16:23;100452.50;;;1.75;91.78
58072;BME280;60383;46.626;18.866;2022-12-07T01:18:50;100451.44;;;1.78;92.48
58072;BME280;60383;46.626;18.866;2022-12-07T01:21:21;100453.88;;;1.68;92.25
58072;BME280;60383;46.626;18.866;2022-12-07T01:23:48;100448.16;;;1.58;91.52
58072;BME280;60383;46.626;18.866;2022-12-07T01:26:16;100441.63;;;1.62;91.84
58072;BME280;60383;46.626;18.866;2022-12-07T01:28:42;100448.94;;;1.60;91.12
58072;BME280;60383;46.626;18.866;2022-12-07T01:31:10;100440.75;;;1.62;91.42
58072;BME280;60383;46.626;18.866;2022-12-07T01:33:44;100439.59;;;1.66;91.28
58072;BME280;60383;46.626;18.866;2022-12-07T01:36:22;100439.00;;;1.75;93.05
58072;BME280;60383;46.626;18.866;2022-12-07T01:38:51;100430.69;;;1.78;92.68
58072;BME280;60383;46.626;18.866;2022-12-07T01:41:18;100430.91;;;1.75;92.05
58072;BME280;60383;46.626;18.866;2022-12-07T01:44:10;100424.44;;;1.78;92.37
58072;BME280;60383;46.626;18.866;2022-12-07T01:46:36;100425.09;;;1.81;92.71
58072;BME280;60383;46.626;18.866;2022-12-07T01:49:07;100422.72;;;1.89;93.33
58072;BME280;60383;46.626;18.866;2022-12-07T01:51:34;100420.13;;;1.88;93.48
58072;BME280;60383;46.626;18.866;2022-12-07T01:54:00;100416.16;;;1.94;93.20
58072;BME280;60383;46.626;18.866;2022-12-07T01:56:27;100423.75;;;2.01;93.65
58072;BME280;60383;46.626;18.866;2022-12-07T01:58:54;100421.72;;;2.05;94.04
58072;BME280;60383;46.626;18.866;2022-12-07T02:01:21;100419.16;;;2.16;93.75
58072;BME280;60383;46.626;18.866;2022-12-07T02:03:47;100417.88;;;2.22;93.05
58072;BME280;60383;46.626;18.866;2022-12-07T02:06:17;100415.06;;;2.23;92.69
58072;BME280;60383;46.626;18.866;2022-12-07T02:08:44;100422.63;;;2.18;92.17
58072;BME280;60383;46.626;18.866;2022-12-07T02:11:10;100428.56;;;2.11;92.22
58072;BME280;60383;46.626;18.866;2022-12-07T02:13:38;100425.97;;;2.22;91.90
58072;BME280;60383;46.626;18.866;2022-12-07T02:18:44;100423.31;;;2.48;89.63
58072;BME280;60383;46.626;18.866;2022-12-07T02:32:07;100413.34;;;2.22;91.26
58072;BME280;60383;46.626;18.866;2022-12-07T02:35:05;100413.59;;;1.92;91.76
58072;BME280;60383;46.626;18.866;2022-12-07T02:42:59;100401.94;;;2.04;92.71
58072;BME280;60383;46.626;18.866;2022-12-07T02:45:29;100401.59;;;1.96;92.97
58072;BME280;60383;46.626;18.866;2022-12-07T02:47:58;100398.66;;;1.99;92.93
58072;BME280;60383;46.626;18.866;2022-12-07T02:50:24;100404.84;;;2.01;92.64
58072;BME280;60383;46.626;18.866;2022-12-07T02:52:51;100396.19;;;1.96;92.73
58072;BME280;60383;46.626;18.866;2022-12-07T02:55:19;100395.72;;;1.89;93.56
58072;BME280;60383;46.626;18.866;2022-12-07T03:00:25;100391.44;;;2.00;93.37
58072;BME280;60383;46.626;18.866;2022-12-07T03:03:06;100394.00;;;1.88;93.35
58072;BME280;60383;46.626;18.866;2022-12-07T03:11:09;100391.47;;;1.58;93.24
58072;BME280;60383;46.626;18.866;2022-12-07T03:19:02;100387.75;;;1.61;93.48
58072;BME280;60383;46.626;18.866;2022-12-07T03:21:37;100386.66;;;1.63;94.11
58072;BME280;60383;46.626;18.866;2022-12-07T03:24:08;100380.69;;;1.58;94.09
58072;BME280;60383;46.626;18.866;2022-12-07T03:26:41;100385.44;;;1.54;94.30
58072;BME280;60383;46.626;18.866;2022-12-07T03:29:16;100377.94;;;1.45;94.50
58072;BME280;60383;46.626;18.866;2022-12-07T03:31:46;100379.09;;;1.41;94.49
58072;BME280;60383;46.626;18.866;2022-12-07T03:34:30;100376.09;;;1.46;94.52
58072;BME280;60383;46.626;18.866;2022-12-07T03:37:11;100380.63;;;1.45;94.73
58072;BME280;60383;46.626;18.866;2022-12-07T03:39:49;100379.66;;;1.46;93.55
58072;BME280;60383;46.626;18.866;2022-12-07T03:42:18;100373.00;;;1.37;92.64
58072;BME280;60383;46.626;18.866;2022-12-07T03:44:44;100386.63;;;1.21;92.79
58072;BME280;60383;46.626;18.866;2022-12-07T03:47:32;100379.13;;;1.26;93.85
58072;BME280;60383;46.626;18.866;2022-12-07T03:50:25;100372.06;;;1.24;94.44
58072;BME280;60383;46.626;18.866;2022-12-07T03:53:09;100383.25;;;1.18;94.75
58072;BME280;60383;46.626;18.866;2022-12-07T03:55:39;100382.19;;;1.20;94.89
58072;BME280;60383;46.626;18.866;2022-12-07T03:58:17;100379.28;;;1.38;95.63
58072;BME280;60383;46.626;18.866;2022-12-07T04:00:46;100386.84;;;1.60;95.76
58072;BME280;60383;46.626;18.866;2022-12-07T04:03:11;100375.75;;;1.65;94.09
58072;BME280;60383;46.626;18.866;2022-12-07T04:05:38;100380.53;;;1.47;92.41
58072;BME280;60383;46.626;18.866;2022-12-07T04:08:04;100386.44;;;1.39;91.95
58072;BME280;60383;46.626;18.866;2022-12-07T04:10:30;100384.91;;;1.20;91.73
58072;BME280;60383;46.626;18.866;2022-12-07T04:12:55;100386.63;;;1.21;92.87
58072;BME280;60383;46.626;18.866;2022-12-07T04:15:21;100382.00;;;1.23;92.71
58072;BME280;60383;46.626;18.866;2022-12-07T04:17:46;100387.69;;;1.19;92.76
58072;BME280;60383;46.626;18.866;2022-12-07T04:20:12;100382.44;;;1.03;94.49
58072;BME280;60383;46.626;18.866;2022-12-07T04:22:38;100380.50;;;1.05;95.12
58072;BME280;60383;46.626;18.866;2022-12-07T04:25:04;100375.50;;;1.13;95.13
58072;BME280;60383;46.626;18.866;2022-12-07T04:27:29;100372.81;;;0.99;95.08
58072;BME280;60383;46.626;18.866;2022-12-07T04:29:55;100375.00;;;1.06;95.09
58072;BME280;60383;46.626;18.866;2022-12-07T04:32:21;100377.03;;;1.03;94.88
58072;BME280;60383;46.626;18.866;2022-12-07T04:34:46;100383.00;;;0.93;95.10
58072;BME280;60383;46.626;18.866;2022-12-07T04:37:12;100372.47;;;1.03;95.30
58072;BME280;60383;46.626;18.866;2022-12-07T04:39:37;100373.09;;;1.08;95.09
58072;BME280;60383;46.626;18.866;2022-12-07T04:42:03;100367.19;;;1.02;95.26
58072;BME280;60383;46.626;18.866;2022-12-07T04:44:29;100367.88;;;1.05;95.02
58072;BME280;60383;46.626;18.866;2022-12-07T04:46:54;100371.63;;;1.03;95.70
58072;BME280;60383;46.626;18.866;2022-12-07T04:49:20;100368.16;;;1.15;95.44
58072;BME280;60383;46.626;18.866;2022-12-07T04:51:46;100369.88;;;1.16;95.18
58072;BME280;60383;46.626;18.866;2022-12-07T04:54:13;100363.53;;;1.17;94.74
58072;BME280;60383;46.626;18.866;2022-12-07T04:56:39;100356.56;;;1.27;93.53
58072;BME280;60383;46.626;18.866;2022-12-07T04:59:05;100357.56;;;1.26;92.98
58072;BME280;60383;46.626;18.866;2022-12-07T05:01:31;100359.59;;;1.23;92.86
58072;BME280;60383;46.626;18.866;2022-12-07T05:03:57;100358.28;;;1.28;92.97
58072;BME280;60383;46.626;18.866;2022-12-07T05:06:23;100356.47;;;1.29;92.76
58072;BME280;60383;46.626;18.866;2022-12-07T05:08:48;100356.63;;;1.40;91.68
58072;BME280;60383;46.626;18.866;2022-12-07T05:11:15;100361.47;;;1.35;91.48
58072;BME280;60383;46.626;18.866;2022-12-07T05:14:00;100365.81;;;1.38;90.72
58072;BME280;60383;46.626;18.866;2022-12-07T05:16:25;100363.50;;;1.32;91.11
58072;BME280;60383;46.626;18.866;2022-12-07T05:18:51;100361.38;;;1.22;91.74
58072;BME280;60383;46.626;18.866;2022-12-07T05:21:16;100361.22;;;1.25;91.93
58072;BME280;60383;46.626;18.866;2022-12-07T05:23:42;100359.88;;;1.18;92.86
58072;BME280;60383;46.626;18.866;2022-12-07T05:26:07;100367.16;;;1.31;93.03
58072;BME280;60383;46.626;18.866;2022-12-07T05:28:32;100379.72;;;1.17;92.83
58072;BME280;60383;46.626;18.866;2022-12-07T05:30:58;100390.91;;;1.11;93.45
58072;BME280;60383;46.626;18.866;2022-12-07T05:33:23;100389.56;;;1.04;93.85
58072;BME280;60383;46.626;18.866;2022-12-07T05:35:49;100385.13;;;1.17;94.26
58072;BME280;60383;46.626;18.866;2022-12-07T05:38:14;100386.75;;;1.20;94.30
58072;BME280;60383;46.626;18.866;2022-12-07T05:40:39;100392.03;;;1.21;94.78
58072;BME280;60383;46.626;18.866;2022-12-07T05:43:05;100395.00;;;1.31;95.05
58072;BME280;60383;46.626;18.866;2022-12-07T05:45:30;100398.03;;;1.26;94.94
58072;BME280;60383;46.626;18.866;2022-12-07T05:47:56;100398.88;;;1.27;95.42
58072;BME280;60383;46.626;18.866;2022-12-07T05:50:21;100393.38;;;1.28;95.68
58072;BME280;60383;46.626;18.866;2022-12-07T05:52:47;100397.31;;;1.37;95.60
58072;BME280;60383;46.626;18.866;2022-12-07T05:55:12;100402.50;;;1.55;94.52
58072;BME280;60383;46.626;18.866;2022-12-07T05:57:38;100398.06;;;1.54;94.84
58072;BME280;60383;46.626;18.866;2022-12-07T06:00:04;100390.25;;;1.49;94.28
58072;BME280;60383;46.626;18.866;2022-12-07T06:02:30;100393.66;;;1.38;93.29
58072;BME280;60383;46.626;18.866;2022-12-07T06:04:55;100400.00;;;1.37;93.43
58072;BME280;60383;46.626;18.866;2022-12-07T06:07:21;100393.97;;;1.19;94.80
58072;BME280;60383;46.626;18.866;2022-12-07T06:09:46;100407.38;;;1.21;94.83
58072;BME280;60383;46.626;18.866;2022-12-07T06:12:12;100401.69;;;1.11;95.50
58072;BME280;60383;46.626;18.866;2022-12-07T06:14:56;100391.69;;;1.13;95.54
58072;BME280;60383;46.626;18.866;2022-12-07T06:17:22;100404.19;;;1.14;95.75
58072;BME280;60383;46.626;18.866;2022-12-07T06:19:48;100399.28;;;1.06;95.10
58072;BME280;60383;46.626;18.866;2022-12-07T06:22:14;100399.19;;;1.08;95.58
58072;BME280;60383;46.626;18.866;2022-12-07T06:24:41;100405.91;;;1.15;94.90
58072;BME280;60383;46.626;18.866;2022-12-07T06:27:07;100399.44;;;1.18;95.09
58072;BME280;60383;46.626;18.866;2022-12-07T06:29:32;100404.78;;;1.19;95.20
58072;BME280;60383;46.626;18.866;2022-12-07T06:31:58;100407.09;;;1.11;95.25
58072;BME280;60383;46.626;18.866;2022-12-07T06:34:24;100408.63;;;1.15;95.45
58072;BME280;60383;46.626;18.866;2022-12-07T06:36:51;100407.09;;;1.25;94.78
58072;BME280;60383;46.626;18.866;2022-12-07T06:39:19;100407.94;;;1.26;94.46
58072;BME280;60383;46.626;18.866;2022-12-07T06:41:45;100408.47;;;1.46;93.65
58072;BME280;60383;46.626;18.866;2022-12-07T06:44:11;100405.31;;;1.53;93.42
58072;BME280;60383;46.626;18.866;2022-12-07T06:46:36;100410.97;;;1.63;92.85
58072;BME280;60383;46.626;18.866;2022-12-07T06:49:03;100414.78;;;2.01;92.15
58072;BME280;60383;46.626;18.866;2022-12-07T06:51:29;100414.63;;;2.17;92.54
58072;BME280;60383;46.626;18.866;2022-12-07T06:53:55;100415.94;;;2.24;92.17
58072;BME280;60383;46.626;18.866;2022-12-07T06:56:20;100423.91;;;2.13;92.27
58072;BME280;60383;46.626;18.866;2022-12-07T06:58:46;100423.25;;;2.09;92.39
58072;BME280;60383;46.626;18.866;2022-12-07T07:01:16;100425.38;;;2.44;92.47
58072;BME280;60383;46.626;18.866;2022-12-07T07:03:43;100413.63;;;3.10;90.57
58072;BME280;60383;46.626;18.866;2022-12-07T07:06:09;100421.41;;;2.76;91.94
58072;BME280;60383;46.626;18.866;2022-12-07T07:08:36;100418.41;;;2.80;92.37
58072;BME280;60383;46.626;18.866;2022-12-07T07:11:02;100423.03;;;2.78;93.20
58072;BME280;60383;46.626;18.866;2022-12-07T07:13:27;100425.56;;;2.94;93.35
58072;BME280;60383;46.626;18.866;2022-12-07T07:15:53;100414.75;;;2.94;92.86
58072;BME280;60383;46.626;18.866;2022-12-07T07:18:19;100407.59;;;2.93;93.16
58072;BME280;60383;46.626;18.866;2022-12-07T07:20:45;100417.75;;;2.90;93.76
58072;BME280;60383;46.626;18.866;2022-12-07T07:23:10;100413.09;;;3.04;93.91
58072;BME280;60383;46.626;18.866;2022-12-07T07:25:36;100412.13;;;3.93;89.47
58072;BME280;60383;46.626;18.866;2022-12-07T07:28:02;100416.00;;;4.02;88.56
58072;BME280;60383;46.626;18.866;2022-12-07T07:30:27;100413.56;;;4.10;87.45
58072;BME280;60383;46.626;18.866;2022-12-07T07:33:12;100405.09;;;4.50;86.67
58072;BME280;60383;46.626;18.866;2022-12-07T07:35:38;100415.31;;;5.27;84.30
58072;BME280;60383;46.626;18.866;2022-12-07T07:38:04;100407.22;;;5.83;80.74
58072;BME280;60383;46.626;18.866;2022-12-07T07:40:30;100397.19;;;7.12;76.93
58072;BME280;60383;46.626;18.866;2022-12-07T07:42:56;100392.06;;;8.49;72.65
58072;BME280;60383;46.626;18.866;2022-12-07T07:45:23;100395.16;;;8.93;70.14
58072;BME280;60383;46.626;18.866;2022-12-07T07:47:50;100392.75;;;8.41;71.16
58072;BME280;60383;46.626;18.866;2022-12-07T07:50:16;100404.66;;;7.91;73.39
58072;BME280;60383;46.626;18.866;2022-12-07T07:52:41;100398.25;;;7.61;74.77
58072;BME280;60383;46.626;18.866;2022-12-07T07:55:07;100404.25;;;8.25;71.40
58072;BME280;60383;46.626;18.866;2022-12-07T07:57:37;100407.38;;;8.89;70.59
58072;BME280;60383;46.626;18.866;2022-12-07T08:00:11;100397.66;;;10.89;62.75
58072;BME280;60383;46.626;18.866;2022-12-07T08:02:37;100394.13;;;12.00;58.26
58072;BME280;60383;46.626;18.866;2022-12-07T08:05:03;100394.00;;;13.09;55.31
58072;BME280;60383;46.626;18.866;2022-12-07T08:07:28;100390.75;;;14.01;50.54
58072;BME280;60383;46.626;18.866;2022-12-07T08:09:54;100379.63;;;15.02;48.10
58072;BME280;60383;46.626;18.866;2022-12-07T08:12:19;100397.16;;;15.70;46.71
58072;BME280;60383;46.626;18.866;2022-12-07T08:14:45;100392.44;;;16.15;44.91
58072;BME280;60383;46.626;18.866;2022-12-07T08:17:12;100392.00;;;15.96;44.21
58072;BME280;60383;46.626;18.866;2022-12-07T08:19:37;100389.09;;;16.63;43.00
58072;BME280;60383;46.626;18.866;2022-12-07T08:22:03;100395.72;;;16.90;42.19
58072;BME280;60383;46.626;18.866;2022-12-07T08:24:28;100397.22;;;16.43;43.09
58072;BME280;60383;46.626;18.866;2022-12-07T08:26:54;100401.00;;;16.20;43.52
58072;BME280;60383;46.626;18.866;2022-12-07T08:29:19;100398.84;;;16.37;42.53
58072;BME280;60383;46.626;18.866;2022-12-07T08:31:45;100395.06;;;16.02;43.89
58072;BME280;60383;46.626;18.866;2022-12-07T08:34:11;100390.81;;;15.54;45.26
58072;BME280;60383;46.626;18.866;2022-12-07T08:36:37;100396.25;;;14.94;46.14
58072;BME280;60383;46.626;18.866;2022-12-07T08:39:03;100411.84;;;13.78;50.11
58072;BME280;60383;46.626;18.866;2022-12-07T08:41:28;100419.03;;;13.87;50.49
58072;BME280;60383;46.626;18.866;2022-12-07T08:43:54;100409.19;;;13.61;51.44
58072;BME280;60383;46.626;18.866;2022-12-07T08:49:11;100411.78;;;14.26;49.63
58072;BME280;60383;46.626;18.866;2022-12-07T08:51:38;100414.47;;;14.57;48.13
58072;BME280;60383;46.626;18.866;2022-12-07T08:54:06;100419.25;;;14.63;49.03
58072;BME280;60383;46.626;18.866;2022-12-07T08:56:33;100414.34;;;14.50;49.02
58072;BME280;60383;46.626;18.866;2022-12-07T08:58:59;100417.13;;;14.74;48.83
58072;BME280;60383;46.626;18.866;2022-12-07T09:01:24;100412.63;;;14.26;49.53
58072;BME280;60383;46.626;18.866;2022-12-07T09:03:50;100411.25;;;14.77;49.15
58072;BME280;60383;46.626;18.866;2022-12-07T09:06:15;100416.50;;;14.87;47.81
58072;BME280;60383;46.626;18.866;2022-12-07T09:08:45;100408.97;;;14.80;47.94
58072;BME280;60383;46.626;18.866;2022-12-07T09:11:11;100411.97;;;14.94;47.75
58072;BME280;60383;46.626;18.866;2022-12-07T09:13:36;100404.38;;;14.96;47.20
58072;BME280;60383;46.626;18.866;2022-12-07T09:16:02;100409.00;;;14.95;47.32
58072;BME280;60383;46.626;18.866;2022-12-07T09:18:27;100406.50;;;14.85;47.69
58072;BME280;60383;46.626;18.866;2022-12-07T09:20:53;100404.25;;;15.04;46.96
58072;BME280;60383;46.626;18.866;2022-12-07T09:23:18;100401.81;;;15.09;47.16
58072;BME280;60383;46.626;18.866;2022-12-07T09:25:44;100386.97;;;15.10;47.15
58072;BME280;60383;46.626;18.866;2022-12-07T09:28:09;100398.88;;;15.26;46.00
58072;BME280;60383;46.626;18.866;2022-12-07T09:30:35;100403.91;;;15.22;48.27
58072;BME280;60383;46.626;18.866;2022-12-07T09:33:01;100394.59;;;15.23;47.58
58072;BME280;60383;46.626;18.866;2022-12-07T09:35:26;100396.09;;;15.11;46.45
58072;BME280;60383;46.626;18.866;2022-12-07T09:37:52;100393.44;;;15.17;44.29
58072;BME280;60383;46.626;18.866;2022-12-07T09:40:20;100389.75;;;15.25;44.35
58072;BME280;60383;46.626;18.866;2022-12-07T09:42:52;100387.47;;;14.76;45.70
58072;BME280;60383;46.626;18.866;2022-12-07T09:45:27;100388.09;;;14.86;46.02
58072;BME280;60383;46.626;18.866;2022-12-07T09:47:54;100387.50;;;14.91;45.35
58072;BME280;60383;46.626;18.866;2022-12-07T09:50:23;100385.72;;;14.98;45.59
58072;BME280;60383;46.626;18.866;2022-12-07T09:52:50;100388.72;;;14.73;47.04
58072;BME280;60383;46.626;18.866;2022-12-07T09:55:28;100389.41;;;14.90;45.74
58072;BME280;60383;46.626;18.866;2022-12-07T09:57:54;100386.94;;;14.95;45.10
58072;BME280;60383;46.626;18.866;2022-12-07T10:00:21;100378.66;;;14.80;45.61
58072;BME280;60383;46.626;18.866;2022-12-07T10:03:01;100382.91;;;14.45;47.00
58072;BME280;60383;46.626;18.866;2022-12-07T10:05:35;100380.53;;;14.80;46.04
58072;BME280;60383;46.626;18.866;2022-12-07T10:08:02;100380.44;;;14.73;46.18
58072;BME280;60383;46.626;18.866;2022-12-07T10:10:32;100377.53;;;14.43;46.16
58072;BME280;60383;46.626;18.866;2022-12-07T10:15:54;100377.03;;;13.53;48.32
58072;BME280;60383;46.626;18.866;2022-12-07T10:18:30;100376.06;;;13.78;48.70
58072;BME280;60383;46.626;18.866;2022-12-07T10:21:16;100372.91;;;12.76;50.17
58072;BME280;60383;46.626;18.866;2022-12-07T10:24:04;100369.75;;;13.21;50.50
58072;BME280;60383;46.626;18.866;2022-12-07T10:26:35;100368.66;;;13.47;48.31
58072;BME280;60383;46.626;18.866;2022-12-07T10:29:33;100365.28;;;13.03;51.36
58072;BME280;60383;46.626;18.866;2022-12-07T10:32:05;100367.97;;;13.45;50.38
58072;BME280;60383;46.626;18.866;2022-12-07T10:34:34;100366.63;;;13.16;50.31
58072;BME280;60383;46.626;18.866;2022-12-07T10:39:49;100357.44;;;13.56;52.49
58072;BME280;60383;46.626;18.866;2022-12-07T10:42:25;100356.03;;;13.61;53.37
58072;BME280;60383;46.626;18.866;2022-12-07T10:45:24;100356.41;;;13.57;50.06
58072;BME280;60383;46.626;18.866;2022-12-07T10:55:41;100339.63;;;11.62;54.79
58072;BME280;60383;46.626;18.866;2022-12-07T11:04:24;100335.47;;;12.26;54.35
58072;BME280;60383;46.626;18.866;2022-12-07T11:12:26;100328.47;;;12.40;53.81
58072;BME280;60383;46.626;18.866;2022-12-07T11:33:42;100313.50;;;11.42;55.27
58072;BME280;60383;46.626;18.866;2022-12-07T11:36:33;100323.38;;;11.69;53.90
58072;BME280;60383;46.626;18.866;2022-12-07T11:39:16;100319.47;;;11.29;55.01
58072;BME280;60383;46.626;18.866;2022-12-07T11:41:48;100320.06;;;11.57;54.40
58072;BME280;60383;46.626;18.866;2022-12-07T11:47:16;100316.16;;;11.17;55.24
58072;BME280;60383;46.626;18.866;2022-12-07T11:49:51;100303.06;;;10.76;56.61
58072;BME280;60383;46.626;18.866;2022-12-07T11:54:53;100302.66;;;10.89;55.37
58072;BME280;60383;46.626;18.866;2022-12-07T11:57:50;100298.69;;;11.18;55.36
58072;BME280;60383;46.626;18.866;2022-12-07T12:00:17;100306.72;;;11.19;54.78
58072;BME280;60383;46.626;18.866;2022-12-07T12:02:52;100305.75;;;10.94;62.30
58072;BME280;60383;46.626;18.866;2022-12-07T12:05:22;100309.69;;;10.92;56.50
58072;BME280;60383;46.626;18.866;2022-12-07T12:08:16;100308.53;;;10.76;56.90
58072;BME280;60383;46.626;18.866;2022-12-07T12:13:52;100292.75;;;10.44;58.11
58072;BME280;60383;46.626;18.866;2022-12-07T12:21:42;100294.63;;;10.96;56.04
58072;BME280;60383;46.626;18.866;2022-12-07T12:24:28;100294.50;;;11.06;55.29
58072;BME280;60383;46.626;18.866;2022-12-07T12:27:05;100303.22;;;11.01;54.04
58072;BME280;60383;46.626;18.866;2022-12-07T12:29:35;100298.06;;;10.98;55.24
58072;BME280;60383;46.626;18.866;2022-12-07T12:32:22;100300.16;;;10.78;55.13
58072;BME280;60383;46.626;18.866;2022-12-07T12:42:44;100290.63;;;10.19;58.40
58072;BME280;60383;46.626;18.866;2022-12-07T12:45:22;100296.13;;;10.37;56.24
58072;BME280;60383;46.626;18.866;2022-12-07T12:50:35;100303.44;;;9.74;57.90
58072;BME280;60383;46.626;18.866;2022-12-07T12:53:05;100294.91;;;9.96;56.87
58072;BME280;60383;46.626;18.866;2022-12-07T12:58:40;100303.41;;;9.56;58.69
58072;BME280;60383;46.626;18.866;2022-12-07T13:01:38;100305.13;;;9.57;58.40
58072;BME280;60383;46.626;18.866;2022-12-07T13:04:17;100296.41;;;9.44;58.92
58072;BME280;60383;46.626;18.866;2022-12-07T13:06:46;100295.63;;;9.34;58.79
58072;BME280;60383;46.626;18.866;2022-12-07T13:09:27;100290.81;;;9.18;59.18
58072;BME280;60383;46.626;18.866;2022-12-07T13:12:04;100295.91;;;9.03;60.62
58072;BME280;60383;46.626;18.866;2022-12-07T13:14:55;100293.53;;;8.90;61.27
58072;BME280;60383;46.626;18.866;2022-12-07T13:19:56;100294.13;;;8.84;61.77
58072;BME280;60383;46.626;18.866;2022-12-07T13:27:54;100295.69;;;8.86;62.08
58072;BME280;60383;46.626;18.866;2022-12-07T13:30:22;100299.34;;;8.67;62.64
58072;BME280;60383;46.626;18.866;2022-12-07T13:32:55;100307.13;;;8.62;63.91
58072;BME280;60383;46.626;18.866;2022-12-07T13:35:29;100302.97;;;8.68;64.05
58072;BME280;60383;46.626;18.866;2022-12-07T13:37:55;100304.00;;;8.57;63.82
58072;BME280;60383;46.626;18.866;2022-12-07T13:40:22;100298.81;;;8.44;64.24
58072;BME280;60383;46.626;18.866;2022-12-07T13:42:57;100308.44;;;8.38;65.00
58072;BME280;60383;46.626;18.866;2022-12-07T13:45:32;100314.47;;;8.32;64.76
58072;BME280;60383;46.626;18.866;2022-12-07T13:48:30;100315.78;;;8.18;65.08
58072;BME280;60383;46.626;18.866;2022-12-07T13:50:58;100318.22;;;8.11;65.96
58072;BME280;60383;46.626;18.866;2022-12-07T13:53:24;100320.69;;;7.85;66.43
58072;BME280;60383;46.626;18.866;2022-12-07T13:55:50;100315.75;;;7.69;67.61
58072;BME280;60383;46.626;18.866;2022-12-07T13:58:16;100320.03;;;7.52;68.89
58072;BME280;60383;46.626;18.866;2022-12-07T14:00:42;100313.03;;;7.69;68.35
58072;BME280;60383;46.626;18.866;2022-12-07T14:05:36;100317.47;;;7.50;68.84
58072;BME280;60383;46.626;18.866;2022-12-07T14:08:21;100323.44;;;7.34;68.78
58072;BME280;60383;46.626;18.866;2022-12-07T14:13:38;100328.47;;;7.29;68.43
58072;BME280;60383;46.626;18.866;2022-12-07T14:16:22;100332.19;;;7.28;68.46
58072;BME280;60383;46.626;18.866;2022-12-07T14:18:49;100330.47;;;7.37;68.79
58072;BME280;60383;46.626;18.866;2022-12-07T14:21:21;100331.22;;;7.39;68.34
58072;BME280;60383;46.626;18.866;2022-12-07T14:24:09;100332.47;;;7.35;68.25
58072;BME280;60383;46.626;18.866;2022-12-07T14:26:34;100326.91;;;7.37;68.40
58072;BME280;60383;46.626;18.866;2022-12-07T14:31:47;100347.72;;;7.38;68.72
58072;BME280;60383;46.626;18.866;2022-12-07T14:34:13;100337.66;;;7.38;68.23
58072;BME280;60383;46.626;18.866;2022-12-07T14:36:38;100340.94;;;7.32;68.95
58072;BME280;60383;46.626;18.866;2022-12-07T14:39:04;100353.56;;;7.33;69.00
58072;BME280;60383;46.626;18.866;2022-12-07T14:41:29;100353.66;;;7.22;69.25
58072;BME280;60383;46.626;18.866;2022-12-07T14:44:13;100352.66;;;7.23;70.24
58072;BME280;60383;46.626;18.866;2022-12-07T14:46:39;100351.94;;;7.21;69.99
58072;BME280;60383;46.626;18.866;2022-12-07T14:49:04;100353.03;;;7.08;70.38
58072;BME280;60383;46.626;18.866;2022-12-07T14:51:31;100355.03;;;7.06;70.18
58072;BME280;60383;46.626;18.866;2022-12-07T14:53:56;100358.91;;;7.03;70.80
58072;BME280;60383;46.626;18.866;2022-12-07T14:56:22;100354.25;;;6.94;70.50
58072;BME280;60383;46.626;18.866;2022-12-07T14:58:47;100353.94;;;6.87;71.84
58072;BME280;60383;46.626;18.866;2022-12-07T15:01:13;100359.06;;;6.81;72.23